sensor_id;sensor_type;location;lat;lon;timestamp;P1;durP1;ratioP1;P2;durP2;ratioP2
32760;SDS011;19126;47.472;7.850;2023-04-24T00:02:08;2.33;;;0.60;;
32760;SDS011;19126;47.472;7.850;2023-04-24T00:04:36;3.00;;;0.65;;
32760;SDS011;19126;47.472;7.850;2023-04-24T00:07:05;0.60;;;0.50;;
32760;SDS011;19126;47.472;7.850;2023-04-24T00:09:32;2.15;;;0.47;;
32760;SDS011;19126;47.472;7.850;2023-04-24T00:12:01;1.38;;;0.40;;
32760;SDS011;19126;47.472;7.850;2023-04-24T00:14:29;2.05;;;0.60;;
32760;SDS011;19126;47.472;7.850;2023-04-24T00:16:57;1.48;;;0.40;;
32760;SDS011;19126;47.472;7.850;2023-04-24T00:19:24;0.90;;;0.45;;
32760;SDS011;19126;47.472;7.850;2023-04-24T00:21:51;1.67;;;0.60;;
32760;SDS011;19126;47.472;7.850;2023-04-24T00:24:19;2.85;;;0.52;;
32760;SDS011;19126;47.472;7.850;2023-04-24T00:26:46;3.67;;;0.82;;
32760;SDS011;19126;47.472;7.850;2023-04-24T00:29:15;4.25;;;0.77;;
32760;SDS011;19126;47.472;7.850;2023-04-24T00:31:42;2.33;;;0.70;;
32760;SDS011;19126;47.472;7.850;2023-04-24T00:34:09;3.90;;;0.73;;
32760;SDS011;19126;47.472;7.850;2023-04-24T00:36:37;1.25;;;0.60;;
32760;SDS011;19126;47.472;7.850;2023-04-24T00:39:05;1.00;;;0.43;;
32760;SDS011;19126;47.472;7.850;2023-04-24T00:41:33;0.98;;;0.57;;
32760;SDS011;19126;47.472;7.850;2023-04-24T00:44:01;3.78;;;0.73;;
32760;SDS011;19126;47.472;7.850;2023-04-24T00:46:30;1.88;;;0.68;;
32760;SDS011;19126;47.472;7.850;2023-04-24T00:48:58;0.90;;;0.50;;
32760;SDS011;19126;47.472;7.850;2023-04-24T00:51:26;1.55;;;0.47;;
32760;SDS011;19126;47.472;7.850;2023-04-24T00:53:53;4.05;;;0.70;;
32760;SDS011;19126;47.472;7.850;2023-04-24T00:56:21;1.77;;;0.60;;
32760;SDS011;19126;47.472;7.850;2023-04-24T00:58:48;1.55;;;0.52;;
32760;SDS011;19126;47.472;7.850;2023-04-24T01:01:16;1.13;;;0.60;;
32760;SDS011;19126;47.472;7.850;2023-04-24T01:03:47;1.27;;;0.60;;
32760;SDS011;19126;47.472;7.850;2023-04-24T01:06:17;0.73;;;0.50;;
32760;SDS011;19126;47.472;7.850;2023-04-24T01:08:45;2.72;;;0.73;;
32760;SDS011;19126;47.472;7.850;2023-04-24T01:11:13;1.40;;;0.57;;
32760;SDS011;19126;47.472;7.850;2023-04-24T01:13:41;3.45;;;1.08;;
32760;SDS011;19126;47.472;7.850;2023-04-24T01:16:08;2.25;;;0.52;;
32760;SDS011;19126;47.472;7.850;2023-04-24T01:18:36;2.35;;;0.80;;
32760;SDS011;19126;47.472;7.850;2023-04-24T01:21:05;4.13;;;0.57;;
32760;SDS011;19126;47.472;7.850;2023-04-24T01:23:36;7.15;;;0.60;;
32760;SDS011;19126;47.472;7.850;2023-04-24T01:26:03;1.38;;;0.50;;
32760;SDS011;19126;47.472;7.850;2023-04-24T01:28:31;1.58;;;0.73;;
32760;SDS011;19126;47.472;7.850;2023-04-24T01:30:58;0.85;;;0.43;;
32760;SDS011;19126;47.472;7.850;2023-04-24T01:33:25;1.83;;;0.47;;
32760;SDS011;19126;47.472;7.850;2023-04-24T01:35:53;2.28;;;0.50;;
32760;SDS011;19126;47.472;7.850;2023-04-24T01:38:21;1.10;;;0.50;;
32760;SDS011;19126;47.472;7.850;2023-04-24T01:40:50;1.42;;;0.45;;
32760;SDS011;19126;47.472;7.850;2023-04-24T01:43:18;1.30;;;0.50;;
32760;SDS011;19126;47.472;7.850;2023-04-24T01:45:46;5.95;;;1.83;;
32760;SDS011;19126;47.472;7.850;2023-04-24T01:48:13;2.25;;;0.63;;
32760;SDS011;19126;47.472;7.850;2023-04-24T01:50:41;2.67;;;0.73;;
32760;SDS011;19126;47.472;7.850;2023-04-24T01:53:08;1.85;;;0.50;;
32760;SDS011;19126;47.472;7.850;2023-04-24T01:55:36;0.60;;;0.50;;
32760;SDS011;19126;47.472;7.850;2023-04-24T01:58:05;0.85;;;0.70;;
32760;SDS011;19126;47.472;7.850;2023-04-24T02:00:32;2.10;;;0.73;;
32760;SDS011;19126;47.472;7.850;2023-04-24T02:02:59;1.08;;;0.65;;
32760;SDS011;19126;47.472;7.850;2023-04-24T02:05:27;2.88;;;0.60;;
32760;SDS011;19126;47.472;7.850;2023-04-24T02:07:55;2.88;;;1.27;;
32760;SDS011;19126;47.472;7.850;2023-04-24T02:10:22;1.10;;;0.57;;
32760;SDS011;19126;47.472;7.850;2023-04-24T02:12:50;0.50;;;0.50;;
32760;SDS011;19126;47.472;7.850;2023-04-24T02:15:19;1.63;;;0.75;;
32760;SDS011;19126;47.472;7.850;2023-04-24T02:17:46;7.95;;;1.38;;
32760;SDS011;19126;47.472;7.850;2023-04-24T02:20:13;2.03;;;0.95;;
32760;SDS011;19126;47.472;7.850;2023-04-24T02:22:42;1.67;;;0.55;;
32760;SDS011;19126;47.472;7.850;2023-04-24T02:25:10;1.02;;;0.50;;
32760;SDS011;19126;47.472;7.850;2023-04-24T02:27:37;0.98;;;0.80;;
32760;SDS011;19126;47.472;7.850;2023-04-24T02:30:06;2.25;;;0.60;;
32760;SDS011;19126;47.472;7.850;2023-04-24T02:32:36;4.40;;;0.73;;
32760;SDS011;19126;47.472;7.850;2023-04-24T02:35:04;2.15;;;0.77;;
32760;SDS011;19126;47.472;7.850;2023-04-24T02:37:32;3.33;;;0.73;;
32760;SDS011;19126;47.472;7.850;2023-04-24T02:40:00;2.30;;;0.60;;
32760;SDS011;19126;47.472;7.850;2023-04-24T02:42:28;2.83;;;0.68;;
32760;SDS011;19126;47.472;7.850;2023-04-24T02:44:55;1.88;;;0.88;;
32760;SDS011;19126;47.472;7.850;2023-04-24T02:47:22;2.00;;;0.80;;
32760;SDS011;19126;47.472;7.850;2023-04-24T02:49:51;2.05;;;0.80;;
32760;SDS011;19126;47.472;7.850;2023-04-24T02:52:18;1.25;;;0.65;;
32760;SDS011;19126;47.472;7.850;2023-04-24T02:54:46;2.65;;;0.80;;
32760;SDS011;19126;47.472;7.850;2023-04-24T02:57:13;3.75;;;0.70;;
32760;SDS011;19126;47.472;7.850;2023-04-24T02:59:40;4.07;;;0.88;;
32760;SDS011;19126;47.472;7.850;2023-04-24T03:02:08;4.28;;;0.80;;
32760;SDS011;19126;47.472;7.850;2023-04-24T03:04:35;7.90;;;0.73;;
32760;SDS011;19126;47.472;7.850;2023-04-24T03:07:04;3.58;;;0.60;;
32760;SDS011;19126;47.472;7.850;2023-04-24T03:09:31;4.22;;;0.60;;
32760;SDS011;19126;47.472;7.850;2023-04-24T03:11:59;1.73;;;0.60;;
32760;SDS011;19126;47.472;7.850;2023-04-24T03:14:26;3.50;;;0.75;;
32760;SDS011;19126;47.472;7.850;2023-04-24T03:16:56;1.45;;;0.57;;
32760;SDS011;19126;47.472;7.850;2023-04-24T03:19:23;0.98;;;0.60;;
32760;SDS011;19126;47.472;7.850;2023-04-24T03:21:50;0.43;;;0.43;;
32760;SDS011;19126;47.472;7.850;2023-04-24T03:24:19;4.22;;;0.70;;
32760;SDS011;19126;47.472;7.850;2023-04-24T03:26:47;1.80;;;0.60;;
32760;SDS011;19126;47.472;7.850;2023-04-24T03:29:14;2.55;;;0.70;;
32760;SDS011;19126;47.472;7.850;2023-04-24T03:31:42;2.40;;;0.80;;
32760;SDS011;19126;47.472;7.850;2023-04-24T03:34:09;0.70;;;0.50;;
32760;SDS011;19126;47.472;7.850;2023-04-24T03:36:36;2.20;;;0.70;;
32760;SDS011;19126;47.472;7.850;2023-04-24T03:39:04;1.52;;;0.80;;
32760;SDS011;19126;47.472;7.850;2023-04-24T03:41:33;0.57;;;0.47;;
32760;SDS011;19126;47.472;7.850;2023-04-24T03:44:00;7.13;;;1.02;;
32760;SDS011;19126;47.472;7.850;2023-04-24T03:46:27;3.60;;;0.68;;
32760;SDS011;19126;47.472;7.850;2023-04-24T03:48:54;4.88;;;0.68;;
32760;SDS011;19126;47.472;7.850;2023-04-24T03:51:22;2.20;;;0.70;;
32760;SDS011;19126;47.472;7.850;2023-04-24T03:53:50;1.00;;;0.60;;
32760;SDS011;19126;47.472;7.850;2023-04-24T03:56:17;3.00;;;0.70;;
32760;SDS011;19126;47.472;7.850;2023-04-24T03:58:46;3.13;;;0.82;;
32760;SDS011;19126;47.472;7.850;2023-04-24T04:01:13;2.92;;;0.90;;
32760;SDS011;19126;47.472;7.850;2023-04-24T04:03:41;1.05;;;0.60;;
32760;SDS011;19126;47.472;7.850;2023-04-24T04:06:08;1.45;;;0.80;;
32760;SDS011;19126;47.472;7.850;2023-04-24T04:08:38;3.30;;;0.88;;
32760;SDS011;19126;47.472;7.850;2023-04-24T04:11:05;3.90;;;1.15;;
32760;SDS011;19126;47.472;7.850;2023-04-24T04:13:32;0.75;;;0.75;;
32760;SDS011;19126;47.472;7.850;2023-04-24T04:16:01;2.33;;;0.93;;
32760;SDS011;19126;47.472;7.850;2023-04-24T04:18:28;6.65;;;1.17;;
32760;SDS011;19126;47.472;7.850;2023-04-24T04:20:55;3.50;;;1.10;;
32760;SDS011;19126;47.472;7.850;2023-04-24T04:23:24;2.25;;;1.10;;
32760;SDS011;19126;47.472;7.850;2023-04-24T04:25:51;4.13;;;1.10;;
32760;SDS011;19126;47.472;7.850;2023-04-24T04:28:20;3.65;;;1.27;;
32760;SDS011;19126;47.472;7.850;2023-04-24T04:30:47;3.25;;;1.25;;
32760;SDS011;19126;47.472;7.850;2023-04-24T04:33:15;2.92;;;1.50;;
32760;SDS011;19126;47.472;7.850;2023-04-24T04:35:43;1.60;;;1.50;;
32760;SDS011;19126;47.472;7.850;2023-04-24T04:38:13;1.67;;;1.52;;
32760;SDS011;19126;47.472;7.850;2023-04-24T04:40:41;3.97;;;2.22;;
32760;SDS011;19126;47.472;7.850;2023-04-24T04:43:09;3.67;;;1.77;;
32760;SDS011;19126;47.472;7.850;2023-04-24T04:45:38;5.43;;;1.90;;
32760;SDS011;19126;47.472;7.850;2023-04-24T04:48:06;3.03;;;2.10;;
32760;SDS011;19126;47.472;7.850;2023-04-24T04:50:35;4.78;;;2.40;;
32760;SDS011;19126;47.472;7.850;2023-04-24T04:53:02;8.73;;;2.35;;
32760;SDS011;19126;47.472;7.850;2023-04-24T04:55:30;3.50;;;2.40;;
32760;SDS011;19126;47.472;7.850;2023-04-24T04:57:57;3.92;;;2.30;;
32760;SDS011;19126;47.472;7.850;2023-04-24T05:00:25;3.40;;;2.78;;
32760;SDS011;19126;47.472;7.850;2023-04-24T05:02:54;5.15;;;2.60;;
32760;SDS011;19126;47.472;7.850;2023-04-24T05:05:21;5.22;;;2.67;;
32760;SDS011;19126;47.472;7.850;2023-04-24T05:07:49;4.28;;;2.63;;
32760;SDS011;19126;47.472;7.850;2023-04-24T05:10:17;6.55;;;2.97;;
32760;SDS011;19126;47.472;7.850;2023-04-24T05:12:44;4.88;;;3.30;;
32760;SDS011;19126;47.472;7.850;2023-04-24T05:15:11;3.78;;;2.78;;
32760;SDS011;19126;47.472;7.850;2023-04-24T05:17:39;7.13;;;2.95;;
32760;SDS011;19126;47.472;7.850;2023-04-24T05:20:06;3.55;;;2.75;;
32760;SDS011;19126;47.472;7.850;2023-04-24T05:22:34;5.78;;;3.10;;
32760;SDS011;19126;47.472;7.850;2023-04-24T05:25:03;4.47;;;3.03;;
32760;SDS011;19126;47.472;7.850;2023-04-24T05:27:31;4.43;;;3.33;;
32760;SDS011;19126;47.472;7.850;2023-04-24T05:29:59;5.65;;;3.67;;
32760;SDS011;19126;47.472;7.850;2023-04-24T05:32:26;6.53;;;3.42;;
32760;SDS011;19126;47.472;7.850;2023-04-24T05:34:53;7.30;;;3.58;;
32760;SDS011;19126;47.472;7.850;2023-04-24T05:37:21;6.95;;;3.58;;
32760;SDS011;19126;47.472;7.850;2023-04-24T05:39:50;3.58;;;3.25;;
32760;SDS011;19126;47.472;7.850;2023-04-24T05:42:19;5.65;;;3.40;;
32760;SDS011;19126;47.472;7.850;2023-04-24T05:44:47;7.32;;;3.78;;
32760;SDS011;19126;47.472;7.850;2023-04-24T05:47:14;6.10;;;3.22;;
32760;SDS011;19126;47.472;7.850;2023-04-24T05:49:41;8.23;;;3.70;;
32760;SDS011;19126;47.472;7.850;2023-04-24T05:52:08;16.20;;;4.45;;
32760;SDS011;19126;47.472;7.850;2023-04-24T05:54:36;9.57;;;3.83;;
32760;SDS011;19126;47.472;7.850;2023-04-24T05:57:03;7.68;;;3.60;;
32760;SDS011;19126;47.472;7.850;2023-04-24T05:59:34;11.35;;;3.55;;
32760;SDS011;19126;47.472;7.850;2023-04-24T06:02:03;8.25;;;3.80;;
32760;SDS011;19126;47.472;7.850;2023-04-24T06:04:31;5.43;;;3.03;;
32760;SDS011;19126;47.472;7.850;2023-04-24T06:06:59;5.72;;;3.22;;
32760;SDS011;19126;47.472;7.850;2023-04-24T06:09:26;6.20;;;2.70;;
32760;SDS011;19126;47.472;7.850;2023-04-24T06:11:53;5.63;;;2.63;;
32760;SDS011;19126;47.472;7.850;2023-04-24T06:14:21;4.85;;;2.67;;
32760;SDS011;19126;47.472;7.850;2023-04-24T06:16:50;6.18;;;2.70;;
32760;SDS011;19126;47.472;7.850;2023-04-24T06:19:17;4.18;;;2.58;;
32760;SDS011;19126;47.472;7.850;2023-04-24T06:21:44;4.35;;;2.10;;
32760;SDS011;19126;47.472;7.850;2023-04-24T06:24:13;7.03;;;3.28;;
32760;SDS011;19126;47.472;7.850;2023-04-24T06:26:42;5.32;;;2.92;;
32760;SDS011;19126;47.472;7.850;2023-04-24T06:29:09;7.13;;;2.35;;
32760;SDS011;19126;47.472;7.850;2023-04-24T06:31:36;4.90;;;2.83;;
32760;SDS011;19126;47.472;7.850;2023-04-24T06:34:05;10.18;;;2.95;;
32760;SDS011;19126;47.472;7.850;2023-04-24T06:36:32;5.43;;;2.60;;
32760;SDS011;19126;47.472;7.850;2023-04-24T06:39:00;7.70;;;3.20;;
32760;SDS011;19126;47.472;7.850;2023-04-24T06:41:28;3.53;;;2.17;;
32760;SDS011;19126;47.472;7.850;2023-04-24T06:43:55;7.75;;;2.20;;
32760;SDS011;19126;47.472;7.850;2023-04-24T06:46:23;3.50;;;2.40;;
32760;SDS011;19126;47.472;7.850;2023-04-24T06:48:51;8.93;;;2.25;;
32760;SDS011;19126;47.472;7.850;2023-04-24T06:51:22;3.67;;;1.63;;
32760;SDS011;19126;47.472;7.850;2023-04-24T06:53:50;5.50;;;1.70;;
32760;SDS011;19126;47.472;7.850;2023-04-24T06:56:18;5.05;;;2.42;;
32760;SDS011;19126;47.472;7.850;2023-04-24T06:58:46;8.48;;;2.42;;
32760;SDS011;19126;47.472;7.850;2023-04-24T07:01:13;4.72;;;2.22;;
32760;SDS011;19126;47.472;7.850;2023-04-24T07:03:41;6.00;;;2.10;;
32760;SDS011;19126;47.472;7.850;2023-04-24T07:06:08;6.43;;;2.50;;
32760;SDS011;19126;47.472;7.850;2023-04-24T07:08:39;4.90;;;2.60;;
32760;SDS011;19126;47.472;7.850;2023-04-24T07:11:07;5.82;;;2.72;;
32760;SDS011;19126;47.472;7.850;2023-04-24T07:13:35;4.45;;;1.83;;
32760;SDS011;19126;47.472;7.850;2023-04-24T07:16:06;4.75;;;2.15;;
32760;SDS011;19126;47.472;7.850;2023-04-24T07:18:35;5.38;;;2.28;;
32760;SDS011;19126;47.472;7.850;2023-04-24T07:21:04;2.58;;;1.80;;
32760;SDS011;19126;47.472;7.850;2023-04-24T07:23:32;3.67;;;1.58;;
32760;SDS011;19126;47.472;7.850;2023-04-24T07:26:01;3.22;;;2.03;;
32760;SDS011;19126;47.472;7.850;2023-04-24T07:28:29;5.30;;;2.00;;
32760;SDS011;19126;47.472;7.850;2023-04-24T07:30:57;3.95;;;1.98;;
32760;SDS011;19126;47.472;7.850;2023-04-24T07:33:25;5.20;;;2.05;;
32760;SDS011;19126;47.472;7.850;2023-04-24T07:35:53;4.38;;;2.40;;
32760;SDS011;19126;47.472;7.850;2023-04-24T07:38:24;5.60;;;2.70;;
32760;SDS011;19126;47.472;7.850;2023-04-24T07:40:51;4.00;;;2.38;;
32760;SDS011;19126;47.472;7.850;2023-04-24T07:43:20;8.75;;;2.70;;
32760;SDS011;19126;47.472;7.850;2023-04-24T07:45:49;6.20;;;2.60;;
32760;SDS011;19126;47.472;7.850;2023-04-24T07:48:17;4.78;;;3.35;;
32760;SDS011;19126;47.472;7.850;2023-04-24T07:50:46;7.90;;;3.28;;
32760;SDS011;19126;47.472;7.850;2023-04-24T07:53:14;7.25;;;3.03;;
32760;SDS011;19126;47.472;7.850;2023-04-24T07:55:41;7.90;;;2.70;;
32760;SDS011;19126;47.472;7.850;2023-04-24T07:58:09;8.07;;;3.10;;
32760;SDS011;19126;47.472;7.850;2023-04-24T08:00:38;6.07;;;2.88;;
32760;SDS011;19126;47.472;7.850;2023-04-24T08:03:05;10.18;;;2.83;;
32760;SDS011;19126;47.472;7.850;2023-04-24T08:05:33;11.25;;;3.35;;
32760;SDS011;19126;47.472;7.850;2023-04-24T08:08:01;7.65;;;2.95;;
32760;SDS011;19126;47.472;7.850;2023-04-24T08:10:28;8.27;;;2.90;;
32760;SDS011;19126;47.472;7.850;2023-04-24T08:12:56;8.25;;;3.25;;
32760;SDS011;19126;47.472;7.850;2023-04-24T08:15:23;7.05;;;2.85;;
32760;SDS011;19126;47.472;7.850;2023-04-24T08:17:52;13.23;;;2.63;;
32760;SDS011;19126;47.472;7.850;2023-04-24T08:20:20;12.60;;;3.53;;
32760;SDS011;19126;47.472;7.850;2023-04-24T08:22:47;7.18;;;2.83;;
32760;SDS011;19126;47.472;7.850;2023-04-24T08:25:15;10.02;;;3.63;;
32760;SDS011;19126;47.472;7.850;2023-04-24T08:27:43;28.15;;;3.80;;
32760;SDS011;19126;47.472;7.850;2023-04-24T08:30:11;14.40;;;3.92;;
32760;SDS011;19126;47.472;7.850;2023-04-24T08:32:39;9.23;;;3.00;;
32760;SDS011;19126;47.472;7.850;2023-04-24T08:35:09;4.40;;;2.65;;
32760;SDS011;19126;47.472;7.850;2023-04-24T08:37:36;9.85;;;3.45;;
32760;SDS011;19126;47.472;7.850;2023-04-24T08:40:05;2.60;;;2.22;;
32760;SDS011;19126;47.472;7.850;2023-04-24T08:42:39;8.48;;;2.55;;
32760;SDS011;19126;47.472;7.850;2023-04-24T08:45:09;10.90;;;2.95;;
32760;SDS011;19126;47.472;7.850;2023-04-24T08:47:38;5.25;;;2.45;;
32760;SDS011;19126;47.472;7.850;2023-04-24T08:50:09;9.82;;;2.50;;
32760;SDS011;19126;47.472;7.850;2023-04-24T08:52:37;7.43;;;2.72;;
32760;SDS011;19126;47.472;7.850;2023-04-24T08:55:05;7.15;;;2.42;;
32760;SDS011;19126;47.472;7.850;2023-04-24T08:57:34;7.90;;;2.58;;
32760;SDS011;19126;47.472;7.850;2023-04-24T09:00:05;10.45;;;2.95;;
32760;SDS011;19126;47.472;7.850;2023-04-24T09:02:34;6.05;;;3.15;;
32760;SDS011;19126;47.472;7.850;2023-04-24T09:05:02;7.28;;;3.00;;
32760;SDS011;19126;47.472;7.850;2023-04-24T09:07:32;2.80;;;2.20;;
32760;SDS011;19126;47.472;7.850;2023-04-24T09:10:02;11.02;;;3.05;;
32760;SDS011;19126;47.472;7.850;2023-04-24T09:12:30;9.57;;;2.75;;
32760;SDS011;19126;47.472;7.850;2023-04-24T09:14:57;7.22;;;2.58;;
32760;SDS011;19126;47.472;7.850;2023-04-24T09:17:26;12.68;;;2.55;;
32760;SDS011;19126;47.472;7.850;2023-04-24T09:19:54;6.80;;;2.55;;
32760;SDS011;19126;47.472;7.850;2023-04-24T09:22:22;10.57;;;2.88;;
32760;SDS011;19126;47.472;7.850;2023-04-24T09:25:00;10.75;;;2.72;;
32760;SDS011;19126;47.472;7.850;2023-04-24T09:27:34;12.50;;;3.05;;
32760;SDS011;19126;47.472;7.850;2023-04-24T09:30:04;13.10;;;2.40;;
32760;SDS011;19126;47.472;7.850;2023-04-24T09:32:33;7.82;;;2.70;;
32760;SDS011;19126;47.472;7.850;2023-04-24T09:35:08;7.10;;;2.20;;
32760;SDS011;19126;47.472;7.850;2023-04-24T09:37:38;9.32;;;3.88;;
32760;SDS011;19126;47.472;7.850;2023-04-24T09:40:21;7.03;;;2.30;;
32760;SDS011;19126;47.472;7.850;2023-04-24T09:42:51;7.00;;;2.53;;
32760;SDS011;19126;47.472;7.850;2023-04-24T09:45:20;7.80;;;2.47;;
32760;SDS011;19126;47.472;7.850;2023-04-24T09:47:51;5.70;;;2.03;;
32760;SDS011;19126;47.472;7.850;2023-04-24T09:50:19;8.77;;;2.20;;
32760;SDS011;19126;47.472;7.850;2023-04-24T09:52:55;4.65;;;2.45;;
32760;SDS011;19126;47.472;7.850;2023-04-24T09:55:26;7.05;;;2.13;;
32760;SDS011;19126;47.472;7.850;2023-04-24T09:57:54;6.13;;;2.33;;
32760;SDS011;19126;47.472;7.850;2023-04-24T10:00:25;4.32;;;2.45;;
32760;SDS011;19126;47.472;7.850;2023-04-24T10:02:56;5.43;;;2.10;;
32760;SDS011;19126;47.472;7.850;2023-04-24T10:05:27;7.38;;;2.08;;
32760;SDS011;19126;47.472;7.850;2023-04-24T10:07:57;5.07;;;1.85;;
32760;SDS011;19126;47.472;7.850;2023-04-24T10:10:29;5.55;;;2.40;;
32760;SDS011;19126;47.472;7.850;2023-04-24T10:12:57;7.53;;;2.42;;
32760;SDS011;19126;47.472;7.850;2023-04-24T10:15:25;3.47;;;2.33;;
32760;SDS011;19126;47.472;7.850;2023-04-24T10:17:53;7.68;;;2.20;;
32760;SDS011;19126;47.472;7.850;2023-04-24T10:20:21;5.60;;;2.00;;
32760;SDS011;19126;47.472;7.850;2023-04-24T10:22:50;4.28;;;1.95;;
32760;SDS011;19126;47.472;7.850;2023-04-24T10:25:19;8.60;;;2.08;;
32760;SDS011;19126;47.472;7.850;2023-04-24T10:27:49;9.23;;;2.28;;
32760;SDS011;19126;47.472;7.850;2023-04-24T10:30:18;3.42;;;2.33;;
32760;SDS011;19126;47.472;7.850;2023-04-24T10:32:46;7.45;;;2.35;;
32760;SDS011;19126;47.472;7.850;2023-04-24T10:35:14;5.78;;;2.70;;
32760;SDS011;19126;47.472;7.850;2023-04-24T10:37:45;6.15;;;2.40;;
32760;SDS011;19126;47.472;7.850;2023-04-24T10:40:17;7.25;;;2.40;;
32760;SDS011;19126;47.472;7.850;2023-04-24T10:42:53;3.30;;;1.95;;
32760;SDS011;19126;47.472;7.850;2023-04-24T10:45:22;5.47;;;2.22;;
32760;SDS011;19126;47.472;7.850;2023-04-24T10:47:51;6.15;;;2.47;;
32760;SDS011;19126;47.472;7.850;2023-04-24T10:50:26;7.38;;;2.22;;
32760;SDS011;19126;47.472;7.850;2023-04-24T10:53:04;6.78;;;2.47;;
32760;SDS011;19126;47.472;7.850;2023-04-24T10:55:40;9.25;;;2.53;;
32760;SDS011;19126;47.472;7.850;2023-04-24T10:58:11;11.02;;;1.98;;
32760;SDS011;19126;47.472;7.850;2023-04-24T11:00:40;4.28;;;2.05;;
32760;SDS011;19126;47.472;7.850;2023-04-24T11:03:22;3.80;;;2.30;;
32760;SDS011;19126;47.472;7.850;2023-04-24T11:05:55;4.43;;;1.83;;
32760;SDS011;19126;47.472;7.850;2023-04-24T11:11:01;8.27;;;1.90;;
32760;SDS011;19126;47.472;7.850;2023-04-24T11:16:33;4.40;;;1.60;;
32760;SDS011;19126;47.472;7.850;2023-04-24T11:19:06;2.90;;;1.70;;
32760;SDS011;19126;47.472;7.850;2023-04-24T11:21:44;4.53;;;2.00;;
32760;SDS011;19126;47.472;7.850;2023-04-24T11:24:27;7.55;;;4.00;;
32760;SDS011;19126;47.472;7.850;2023-04-24T11:26:57;4.05;;;1.60;;
32760;SDS011;19126;47.472;7.850;2023-04-24T11:29:39;9.45;;;2.17;;
32760;SDS011;19126;47.472;7.850;2023-04-24T11:32:23;4.40;;;2.22;;
32760;SDS011;19126;47.472;7.850;2023-04-24T11:34:54;3.67;;;1.95;;
32760;SDS011;19126;47.472;7.850;2023-04-24T11:37:23;6.25;;;2.45;;
32760;SDS011;19126;47.472;7.850;2023-04-24T11:39:53;4.55;;;2.90;;
32760;SDS011;19126;47.472;7.850;2023-04-24T11:42:22;8.10;;;2.33;;
32760;SDS011;19126;47.472;7.850;2023-04-24T11:44:53;3.22;;;1.80;;
32760;SDS011;19126;47.472;7.850;2023-04-24T11:47:27;4.63;;;1.70;;
32760;SDS011;19126;47.472;7.850;2023-04-24T11:49:56;7.45;;;1.63;;
32760;SDS011;19126;47.472;7.850;2023-04-24T11:52:24;5.18;;;1.40;;
32760;SDS011;19126;47.472;7.850;2023-04-24T11:54:52;4.53;;;1.90;;
32760;SDS011;19126;47.472;7.850;2023-04-24T11:57:20;5.47;;;1.50;;
32760;SDS011;19126;47.472;7.850;2023-04-24T11:59:48;6.47;;;1.95;;
32760;SDS011;19126;47.472;7.850;2023-04-24T12:02:23;3.88;;;1.50;;
32760;SDS011;19126;47.472;7.850;2023-04-24T12:04:52;3.45;;;1.63;;
32760;SDS011;19126;47.472;7.850;2023-04-24T12:07:20;2.75;;;1.45;;
32760;SDS011;19126;47.472;7.850;2023-04-24T12:09:54;3.57;;;1.93;;
32760;SDS011;19126;47.472;7.850;2023-04-24T12:12:25;3.83;;;1.67;;
32760;SDS011;19126;47.472;7.850;2023-04-24T12:14:53;8.18;;;1.80;;
32760;SDS011;19126;47.472;7.850;2023-04-24T12:17:27;3.22;;;1.50;;
32760;SDS011;19126;47.472;7.850;2023-04-24T12:19:59;6.55;;;1.88;;
32760;SDS011;19126;47.472;7.850;2023-04-24T12:22:42;2.70;;;1.70;;
32760;SDS011;19126;47.472;7.850;2023-04-24T12:25:11;2.58;;;1.90;;
32760;SDS011;19126;47.472;7.850;2023-04-24T12:27:40;6.80;;;2.00;;
32760;SDS011;19126;47.472;7.850;2023-04-24T12:30:10;5.75;;;2.72;;
32760;SDS011;19126;47.472;7.850;2023-04-24T12:32:42;7.55;;;2.63;;
32760;SDS011;19126;47.472;7.850;2023-04-24T12:35:12;9.70;;;2.35;;
32760;SDS011;19126;47.472;7.850;2023-04-24T12:37:41;6.13;;;2.42;;
32760;SDS011;19126;47.472;7.850;2023-04-24T12:40:10;2.65;;;1.60;;
32760;SDS011;19126;47.472;7.850;2023-04-24T12:42:42;6.38;;;2.00;;
32760;SDS011;19126;47.472;7.850;2023-04-24T12:45:11;3.85;;;1.88;;
32760;SDS011;19126;47.472;7.850;2023-04-24T12:47:41;5.90;;;1.80;;
32760;SDS011;19126;47.472;7.850;2023-04-24T12:50:11;2.75;;;1.50;;
32760;SDS011;19126;47.472;7.850;2023-04-24T12:52:40;6.45;;;1.90;;
32760;SDS011;19126;47.472;7.850;2023-04-24T12:55:09;3.13;;;2.03;;
32760;SDS011;19126;47.472;7.850;2023-04-24T12:57:38;3.53;;;1.98;;
32760;SDS011;19126;47.472;7.850;2023-04-24T13:00:07;6.75;;;1.90;;
32760;SDS011;19126;47.472;7.850;2023-04-24T13:02:36;8.68;;;1.95;;
32760;SDS011;19126;47.472;7.850;2023-04-24T13:05:05;5.45;;;2.25;;
32760;SDS011;19126;47.472;7.850;2023-04-24T13:07:36;7.45;;;2.80;;
32760;SDS011;19126;47.472;7.850;2023-04-24T13:10:07;3.78;;;1.73;;
32760;SDS011;19126;47.472;7.850;2023-04-24T13:12:39;4.43;;;1.48;;
32760;SDS011;19126;47.472;7.850;2023-04-24T13:15:11;4.97;;;2.05;;
32760;SDS011;19126;47.472;7.850;2023-04-24T13:17:38;2.15;;;1.70;;
32760;SDS011;19126;47.472;7.850;2023-04-24T13:20:11;2.40;;;1.40;;
32760;SDS011;19126;47.472;7.850;2023-04-24T13:22:40;2.88;;;1.80;;
32760;SDS011;19126;47.472;7.850;2023-04-24T13:25:09;5.38;;;1.55;;
32760;SDS011;19126;47.472;7.850;2023-04-24T13:27:40;4.90;;;1.50;;
32760;SDS011;19126;47.472;7.850;2023-04-24T13:30:16;5.20;;;1.48;;
32760;SDS011;19126;47.472;7.850;2023-04-24T13:32:52;2.78;;;1.73;;
32760;SDS011;19126;47.472;7.850;2023-04-24T13:35:51;8.85;;;1.70;;
32760;SDS011;19126;47.472;7.850;2023-04-24T13:38:21;4.47;;;2.00;;
32760;SDS011;19126;47.472;7.850;2023-04-24T13:40:59;4.53;;;1.98;;
32760;SDS011;19126;47.472;7.850;2023-04-24T13:43:35;7.13;;;1.88;;
32760;SDS011;19126;47.472;7.850;2023-04-24T13:46:03;2.22;;;1.65;;
32760;SDS011;19126;47.472;7.850;2023-04-24T13:48:30;11.30;;;2.00;;
32760;SDS011;19126;47.472;7.850;2023-04-24T13:51:00;3.67;;;1.70;;
32760;SDS011;19126;47.472;7.850;2023-04-24T13:53:30;3.88;;;1.85;;
32760;SDS011;19126;47.472;7.850;2023-04-24T13:56:01;2.45;;;1.35;;
32760;SDS011;19126;47.472;7.850;2023-04-24T13:58:29;2.08;;;1.60;;
32760;SDS011;19126;47.472;7.850;2023-04-24T14:00:58;7.45;;;3.08;;
32760;SDS011;19126;47.472;7.850;2023-04-24T14:03:28;2.95;;;1.73;;
32760;SDS011;19126;47.472;7.850;2023-04-24T14:05:56;4.07;;;1.88;;
32760;SDS011;19126;47.472;7.850;2023-04-24T14:08:25;3.88;;;2.03;;
32760;SDS011;19126;47.472;7.850;2023-04-24T14:10:52;2.25;;;1.63;;
32760;SDS011;19126;47.472;7.850;2023-04-24T14:13:23;3.45;;;1.80;;
32760;SDS011;19126;47.472;7.850;2023-04-24T14:15:50;2.08;;;1.70;;
32760;SDS011;19126;47.472;7.850;2023-04-24T14:18:20;7.55;;;2.45;;
32760;SDS011;19126;47.472;7.850;2023-04-24T14:20:51;4.15;;;2.03;;
32760;SDS011;19126;47.472;7.850;2023-04-24T14:25:48;3.65;;;2.20;;
32760;SDS011;19126;47.472;7.850;2023-04-24T14:28:17;4.28;;;2.00;;
32760;SDS011;19126;47.472;7.850;2023-04-24T14:30:48;4.93;;;1.85;;
32760;SDS011;19126;47.472;7.850;2023-04-24T14:33:15;7.20;;;2.00;;
32760;SDS011;19126;47.472;7.850;2023-04-24T14:35:45;7.03;;;2.10;;
32760;SDS011;19126;47.472;7.850;2023-04-24T14:38:12;4.00;;;2.05;;
32760;SDS011;19126;47.472;7.850;2023-04-24T14:40:40;3.33;;;2.15;;
32760;SDS011;19126;47.472;7.850;2023-04-24T14:43:09;6.82;;;2.95;;
32760;SDS011;19126;47.472;7.850;2023-04-24T14:45:38;7.13;;;2.38;;
32760;SDS011;19126;47.472;7.850;2023-04-24T14:48:09;8.23;;;4.20;;
32760;SDS011;19126;47.472;7.850;2023-04-24T14:50:37;5.40;;;2.75;;
32760;SDS011;19126;47.472;7.850;2023-04-24T14:53:05;7.15;;;2.20;;
32760;SDS011;19126;47.472;7.850;2023-04-24T14:55:32;6.82;;;2.45;;
32760;SDS011;19126;47.472;7.850;2023-04-24T14:58:01;4.43;;;2.38;;
32760;SDS011;19126;47.472;7.850;2023-04-24T15:00:30;5.25;;;2.88;;
32760;SDS011;19126;47.472;7.850;2023-04-24T15:02:57;15.88;;;4.85;;
32760;SDS011;19126;47.472;7.850;2023-04-24T15:05:25;16.90;;;9.88;;
32760;SDS011;19126;47.472;7.850;2023-04-24T15:07:53;7.40;;;3.17;;